sensor_id;sensor_type;location;lat;lon;timestamp;pressure;altitude;pressure_sealevel;temperature;humidity
74466;BME280;62916;50.044;15.938;2024-01-30T00:01:04;100903.64;;;18.72;50.79
74466;BME280;62916;50.044;15.938;2024-01-30T00:03:35;100907.61;;;18.69;50.85
74466;BME280;62916;50.044;15.938;2024-01-30T00:06:07;100906.63;;;18.67;50.94
74466;BME280;62916;50.044;15.938;2024-01-30T00:08:38;100902.16;;;18.65;50.99
74466;BME280;62916;50.044;15.938;2024-01-30T00:11:10;100901.36;;;18.63;50.94
74466;BME280;62916;50.044;15.938;2024-01-30T00:13:41;100900.04;;;18.60;51.07
74466;BME280;62916;50.044;15.938;2024-01-30T00:16:21;100900.20;;;18.56;51.18
74466;BME280;62916;50.044;15.938;2024-01-30T00:18:53;100897.79;;;18.54;51.41
74466;BME280;62916;50.044;15.938;2024-01-30T00:21:25;100899.89;;;18.50;51.42
74466;BME280;62916;50.044;15.938;2024-01-30T00:23:55;100902.45;;;18.49;51.36
74466;BME280;62916;50.044;15.938;2024-01-30T00:26:26;100895.45;;;18.46;51.42
74466;BME280;62916;50.044;15.938;2024-01-30T00:28:57;100891.77;;;18.44;51.38
74466;BME280;62916;50.044;15.938;2024-01-30T00:31:28;100893.27;;;18.42;51.52
74466;BME280;62916;50.044;15.938;2024-01-30T00:33:59;100889.84;;;18.40;51.56
74466;BME280;62916;50.044;15.938;2024-01-30T00:36:30;100888.21;;;18.37;51.65
74466;BME280;62916;50.044;15.938;2024-01-30T00:39:01;100888.24;;;18.35;51.62
74466;BME280;62916;50.044;15.938;2024-01-30T00:41:35;100887.60;;;18.32;51.65
74466;BME280;62916;50.044;15.938;2024-01-30T00:44:06;100896.93;;;18.32;51.73
74466;BME280;62916;50.044;15.938;2024-01-30T00:46:37;100898.20;;;18.30;51.82
74466;BME280;62916;50.044;15.938;2024-01-30T00:49:08;100901.92;;;18.28;51.89
74466;BME280;62916;50.044;15.938;2024-01-30T00:51:39;100894.08;;;18.24;51.96
74466;BME280;62916;50.044;15.938;2024-01-30T00:54:10;100900.74;;;18.22;52.05
74466;BME280;62916;50.044;15.938;2024-01-30T00:56:41;100900.32;;;18.20;52.03
74466;BME280;62916;50.044;15.938;2024-01-30T00:59:12;100899.72;;;18.18;52.01
74466;BME280;62916;50.044;15.938;2024-01-30T01:01:43;100893.23;;;18.15;52.16
74466;BME280;62916;50.044;15.938;2024-01-30T01:04:14;100889.20;;;18.13;52.14
74466;BME280;62916;50.044;15.938;2024-01-30T01:06:45;100891.35;;;18.11;52.15
74466;BME280;62916;50.044;15.938;2024-01-30T01:09:16;100888.64;;;18.10;52.14
74466;BME280;62916;50.044;15.938;2024-01-30T01:11:47;100889.48;;;18.10;52.13
74466;BME280;62916;50.044;15.938;2024-01-30T01:14:18;100889.83;;;18.08;52.15
74466;BME280;62916;50.044;15.938;2024-01-30T01:16:49;100897.05;;;18.06;52.12
74466;BME280;62916;50.044;15.938;2024-01-30T01:19:20;100897.98;;;18.05;52.22
74466;BME280;62916;50.044;15.938;2024-01-30T01:21:51;100899.45;;;18.01;52.27
74466;BME280;62916;50.044;15.938;2024-01-30T01:24:22;100899.27;;;17.99;52.35
74466;BME280;62916;50.044;15.938;2024-01-30T01:26:53;100898.85;;;17.97;52.66
74466;BME280;62916;50.044;15.938;2024-01-30T01:29:26;100898.81;;;17.95;52.75
74466;BME280;62916;50.044;15.938;2024-01-30T01:31:58;100894.80;;;17.94;52.81
74466;BME280;62916;50.044;15.938;2024-01-30T01:34:29;100893.95;;;17.92;52.87
74466;BME280;62916;50.044;15.938;2024-01-30T01:37:00;100886.69;;;17.91;52.97
74466;BME280;62916;50.044;15.938;2024-01-30T01:39:31;100884.65;;;17.89;53.00
74466;BME280;62916;50.044;15.938;2024-01-30T01:42:02;100885.59;;;17.88;53.19
74466;BME280;62916;50.044;15.938;2024-01-30T01:44:33;100883.25;;;17.86;53.16
74466;BME280;62916;50.044;15.938;2024-01-30T01:47:04;100884.64;;;17.84;53.36
74466;BME280;62916;50.044;15.938;2024-01-30T01:49:36;100885.05;;;17.83;53.25
74466;BME280;62916;50.044;15.938;2024-01-30T01:52:08;100887.90;;;17.82;53.38
74466;BME280;62916;50.044;15.938;2024-01-30T01:54:39;100886.84;;;17.80;53.33
74466;BME280;62916;50.044;15.938;2024-01-30T01:57:11;100884.81;;;17.80;53.33
74466;BME280;62916;50.044;15.938;2024-01-30T01:59:42;100883.74;;;17.80;53.35
74466;BME280;62916;50.044;15.938;2024-01-30T02:02:14;100880.27;;;17.80;53.39
74466;BME280;62916;50.044;15.938;2024-01-30T02:04:45;100883.47;;;17.77;53.34
74466;BME280;62916;50.044;15.938;2024-01-30T02:07:16;100886.19;;;17.75;53.44
74466;BME280;62916;50.044;15.938;2024-01-30T02:09:47;100887.72;;;17.73;53.50
74466;BME280;62916;50.044;15.938;2024-01-30T02:12:19;100889.71;;;17.71;53.55
74466;BME280;62916;50.044;15.938;2024-01-30T02:14:50;100886.78;;;17.69;53.55
74466;BME280;62916;50.044;15.938;2024-01-30T02:17:21;100890.51;;;17.67;53.55
74466;BME280;62916;50.044;15.938;2024-01-30T02:19:53;100889.02;;;17.65;53.62
74466;BME280;62916;50.044;15.938;2024-01-30T02:22:24;100886.80;;;17.64;53.71
74466;BME280;62916;50.044;15.938;2024-01-30T02:24:55;100887.73;;;17.63;53.71
74466;BME280;62916;50.044;15.938;2024-01-30T02:27:26;100884.61;;;17.61;53.70
74466;BME280;62916;50.044;15.938;2024-01-30T02:29:58;100889.65;;;17.60;53.83
74466;BME280;62916;50.044;15.938;2024-01-30T02:32:30;100882.39;;;17.58;53.88
74466;BME280;62916;50.044;15.938;2024-01-30T02:35:01;100888.48;;;17.57;53.80
74466;BME280;62916;50.044;15.938;2024-01-30T02:37:32;100886.09;;;17.55;53.91
74466;BME280;62916;50.044;15.938;2024-01-30T02:40:03;100886.80;;;17.54;53.73
74466;BME280;62916;50.044;15.938;2024-01-30T02:42:34;100881.05;;;17.52;53.82
74466;BME280;62916;50.044;15.938;2024-01-30T02:45:07;100879.61;;;17.49;53.84
74466;BME280;62916;50.044;15.938;2024-01-30T02:47:38;100876.58;;;17.48;53.83
74466;BME280;62916;50.044;15.938;2024-01-30T02:50:11;100871.98;;;17.47;53.83
74466;BME280;62916;50.044;15.938;2024-01-30T02:52:42;100877.42;;;17.45;53.86
74466;BME280;62916;50.044;15.938;2024-01-30T02:55:14;100875.11;;;17.45;53.86
74466;BME280;62916;50.044;15.938;2024-01-30T02:57:47;100869.80;;;17.43;54.06
74466;BME280;62916;50.044;15.938;2024-01-30T03:00:19;100868.83;;;17.42;54.13
74466;BME280;62916;50.044;15.938;2024-01-30T03:02:50;100867.48;;;17.41;54.13
74466;BME280;62916;50.044;15.938;2024-01-30T03:05:21;100867.17;;;17.40;54.09
74466;BME280;62916;50.044;15.938;2024-01-30T03:07:52;100863.64;;;17.39;54.03
74466;BME280;62916;50.044;15.938;2024-01-30T03:10:23;100867.63;;;17.39;53.97
74466;BME280;62916;50.044;15.938;2024-01-30T03:12:55;100871.85;;;17.40;54.01
74466;BME280;62916;50.044;15.938;2024-01-30T03:15:26;100869.03;;;17.41;54.07
74466;BME280;62916;50.044;15.938;2024-01-30T03:17:56;100864.52;;;17.43;54.04
74466;BME280;62916;50.044;15.938;2024-01-30T03:20:27;100861.27;;;17.46;53.95
74466;BME280;62916;50.044;15.938;2024-01-30T03:22:59;100863.56;;;17.49;53.96
74466;BME280;62916;50.044;15.938;2024-01-30T03:25:30;100863.75;;;17.52;53.87
74466;BME280;62916;50.044;15.938;2024-01-30T03:28:01;100868.56;;;17.57;53.87
74466;BME280;62916;50.044;15.938;2024-01-30T03:30:32;100864.45;;;17.61;53.88
74466;BME280;62916;50.044;15.938;2024-01-30T03:33:03;100861.58;;;17.65;53.88
74466;BME280;62916;50.044;15.938;2024-01-30T03:35:34;100860.85;;;17.68;53.82
74466;BME280;62916;50.044;15.938;2024-01-30T03:38:05;100856.05;;;17.72;53.88
74466;BME280;62916;50.044;15.938;2024-01-30T03:40:36;100860.36;;;17.74;53.78
74466;BME280;62916;50.044;15.938;2024-01-30T03:43:07;100862.92;;;17.77;53.86
74466;BME280;62916;50.044;15.938;2024-01-30T03:45:38;100862.06;;;17.79;53.82
74466;BME280;62916;50.044;15.938;2024-01-30T03:48:09;100863.37;;;17.81;53.85
74466;BME280;62916;50.044;15.938;2024-01-30T03:50:40;100862.48;;;17.83;53.96
74466;BME280;62916;50.044;15.938;2024-01-30T03:53:11;100858.76;;;17.85;53.92
74466;BME280;62916;50.044;15.938;2024-01-30T03:55:42;100853.55;;;17.85;53.98
74466;BME280;62916;50.044;15.938;2024-01-30T03:58:13;100855.83;;;17.88;54.00
74466;BME280;62916;50.044;15.938;2024-01-30T04:00:44;100860.33;;;17.88;54.07
74466;BME280;62916;50.044;15.938;2024-01-30T04:03:15;100857.80;;;17.88;53.96
74466;BME280;62916;50.044;15.938;2024-01-30T04:05:46;100858.98;;;17.88;53.99
74466;BME280;62916;50.044;15.938;2024-01-30T04:08:17;100861.04;;;17.87;54.04
74466;BME280;62916;50.044;15.938;2024-01-30T04:10:48;100864.90;;;17.86;53.92
74466;BME280;62916;50.044;15.938;2024-01-30T04:13:19;100864.27;;;17.85;54.12
74466;BME280;62916;50.044;15.938;2024-01-30T04:15:50;100861.47;;;17.85;54.07
74466;BME280;62916;50.044;15.938;2024-01-30T04:18:21;100861.46;;;17.85;54.03
74466;BME280;62916;50.044;15.938;2024-01-30T04:20:52;100857.46;;;17.85;54.00
74466;BME280;62916;50.044;15.938;2024-01-30T04:23:23;100851.05;;;17.84;54.01
74466;BME280;62916;50.044;15.938;2024-01-30T04:25:54;100849.69;;;17.83;54.09
74466;BME280;62916;50.044;15.938;2024-01-30T04:28:25;100850.97;;;17.82;54.01
74466;BME280;62916;50.044;15.938;2024-01-30T04:30:56;100846.47;;;17.81;54.12
74466;BME280;62916;50.044;15.938;2024-01-30T04:33:28;100846.02;;;17.79;54.18
74466;BME280;62916;50.044;15.938;2024-01-30T04:35:59;100846.00;;;17.79;54.08
74466;BME280;62916;50.044;15.938;2024-01-30T04:38:30;100845.59;;;17.77;54.04
74466;BME280;62916;50.044;15.938;2024-01-30T04:41:02;100843.43;;;17.76;54.24
74466;BME280;62916;50.044;15.938;2024-01-30T04:43:33;100842.46;;;17.75;54.12
74466;BME280;62916;50.044;15.938;2024-01-30T04:46:05;100841.37;;;17.74;54.32
74466;BME280;62916;50.044;15.938;2024-01-30T04:48:36;100840.97;;;17.73;54.30
74466;BME280;62916;50.044;15.938;2024-01-30T04:51:08;100838.46;;;17.70;54.37
74466;BME280;62916;50.044;15.938;2024-01-30T04:53:39;100843.80;;;17.72;54.51
74466;BME280;62916;50.044;15.938;2024-01-30T04:56:10;100835.39;;;17.72;54.38
74466;BME280;62916;50.044;15.938;2024-01-30T04:58:42;100831.29;;;17.70;54.41
74466;BME280;62916;50.044;15.938;2024-01-30T05:01:16;100832.45;;;17.69;54.39
74466;BME280;62916;50.044;15.938;2024-01-30T05:03:47;100839.00;;;17.68;54.34
74466;BME280;62916;50.044;15.938;2024-01-30T05:06:26;100836.35;;;17.67;54.42
74466;BME280;62916;50.044;15.938;2024-01-30T05:08:57;100835.56;;;17.66;54.44
74466;BME280;62916;50.044;15.938;2024-01-30T05:11:28;100834.27;;;17.66;54.35
74466;BME280;62916;50.044;15.938;2024-01-30T05:13:59;100836.59;;;17.64;54.40
74466;BME280;62916;50.044;15.938;2024-01-30T05:16:30;100833.48;;;17.63;54.35
74466;BME280;62916;50.044;15.938;2024-01-30T05:19:01;100837.52;;;17.61;54.47
74466;BME280;62916;50.044;15.938;2024-01-30T05:21:32;100836.40;;;17.60;54.28
74466;BME280;62916;50.044;15.938;2024-01-30T05:24:04;100833.92;;;17.56;52.14
74466;BME280;62916;50.044;15.938;2024-01-30T05:26:35;100835.59;;;17.51;53.01
74466;BME280;62916;50.044;15.938;2024-01-30T05:29:06;100832.16;;;17.50;53.40
74466;BME280;62916;50.044;15.938;2024-01-30T05:31:37;100833.80;;;17.50;53.40
74466;BME280;62916;50.044;15.938;2024-01-30T05:34:08;100833.07;;;17.50;53.39
74466;BME280;62916;50.044;15.938;2024-01-30T05:36:39;100842.15;;;17.50;53.61
74466;BME280;62916;50.044;15.938;2024-01-30T05:39:10;100843.00;;;17.52;53.74
74466;BME280;62916;50.044;15.938;2024-01-30T05:41:41;100847.38;;;17.55;53.80
74466;BME280;62916;50.044;15.938;2024-01-30T05:44:12;100847.54;;;17.58;53.70
74466;BME280;62916;50.044;15.938;2024-01-30T05:46:43;100850.95;;;17.61;53.66
74466;BME280;62916;50.044;15.938;2024-01-30T05:49:14;100843.55;;;17.64;53.77
74466;BME280;62916;50.044;15.938;2024-01-30T05:51:45;100846.06;;;17.67;53.68
74466;BME280;62916;50.044;15.938;2024-01-30T05:54:15;100848.75;;;17.70;53.71
74466;BME280;62916;50.044;15.938;2024-01-30T05:56:46;100845.95;;;17.72;53.74
74466;BME280;62916;50.044;15.938;2024-01-30T05:59:17;100843.59;;;17.75;53.87
74466;BME280;62916;50.044;15.938;2024-01-30T06:01:48;100848.33;;;17.77;53.78
74466;BME280;62916;50.044;15.938;2024-01-30T06:04:20;100849.42;;;17.78;53.78
74466;BME280;62916;50.044;15.938;2024-01-30T06:06:51;100848.92;;;17.79;53.71
74466;BME280;62916;50.044;15.938;2024-01-30T06:09:21;100851.28;;;17.79;53.71
74466;BME280;62916;50.044;15.938;2024-01-30T06:11:52;100849.44;;;17.79;53.67
74466;BME280;62916;50.044;15.938;2024-01-30T06:14:23;100847.14;;;17.80;53.93
74466;BME280;62916;50.044;15.938;2024-01-30T06:16:54;100847.08;;;17.79;53.80
74466;BME280;62916;50.044;15.938;2024-01-30T06:19:25;100851.34;;;17.79;53.77
74466;BME280;62916;50.044;15.938;2024-01-30T06:21:56;100852.34;;;17.79;53.84
74466;BME280;62916;50.044;15.938;2024-01-30T06:24:27;100851.48;;;17.78;53.89
74466;BME280;62916;50.044;15.938;2024-01-30T06:26:58;100850.08;;;17.78;53.95
74466;BME280;62916;50.044;15.938;2024-01-30T06:29:29;100848.95;;;17.77;53.87
74466;BME280;62916;50.044;15.938;2024-01-30T06:32:00;100847.46;;;17.76;53.88
74466;BME280;62916;50.044;15.938;2024-01-30T06:34:31;100846.10;;;17.75;53.93
74466;BME280;62916;50.044;15.938;2024-01-30T06:37:03;100846.20;;;17.74;53.97
74466;BME280;62916;50.044;15.938;2024-01-30T06:39:34;100847.88;;;17.73;54.01
74466;BME280;62916;50.044;15.938;2024-01-30T06:42:06;100849.20;;;17.72;54.02
74466;BME280;62916;50.044;15.938;2024-01-30T06:44:36;100851.67;;;17.71;54.03
74466;BME280;62916;50.044;15.938;2024-01-30T06:47:07;100850.38;;;17.71;54.02
74466;BME280;62916;50.044;15.938;2024-01-30T06:49:38;100848.73;;;17.69;54.02
74466;BME280;62916;50.044;15.938;2024-01-30T06:52:11;100839.73;;;17.68;53.97
74466;BME280;62916;50.044;15.938;2024-01-30T06:54:43;100841.41;;;17.67;54.06
74466;BME280;62916;50.044;15.938;2024-01-30T06:57:14;100841.79;;;17.66;54.02
74466;BME280;62916;50.044;15.938;2024-01-30T06:59:45;100844.80;;;17.64;54.02
74466;BME280;62916;50.044;15.938;2024-01-30T07:02:16;100846.75;;;17.64;54.04
74466;BME280;62916;50.044;15.938;2024-01-30T07:04:47;100846.42;;;17.63;54.05
74466;BME280;62916;50.044;15.938;2024-01-30T07:07:19;100848.95;;;17.62;53.96
74466;BME280;62916;50.044;15.938;2024-01-30T07:09:50;100850.44;;;17.61;54.02
74466;BME280;62916;50.044;15.938;2024-01-30T07:12:26;100853.12;;;17.60;54.03
74466;BME280;62916;50.044;15.938;2024-01-30T07:14:57;100848.27;;;17.58;53.94
74466;BME280;62916;50.044;15.938;2024-01-30T07:17:29;100848.25;;;17.57;54.06
74466;BME280;62916;50.044;15.938;2024-01-30T07:20:00;100851.78;;;17.56;54.08
74466;BME280;62916;50.044;15.938;2024-01-30T07:22:34;100846.08;;;17.55;54.05
74466;BME280;62916;50.044;15.938;2024-01-30T07:25:07;100849.38;;;17.54;54.11
74466;BME280;62916;50.044;15.938;2024-01-30T07:27:38;100854.41;;;17.53;53.97
74466;BME280;62916;50.044;15.938;2024-01-30T07:30:11;100856.35;;;17.52;54.07
74466;BME280;62916;50.044;15.938;2024-01-30T07:32:42;100858.19;;;17.50;53.96
74466;BME280;62916;50.044;15.938;2024-01-30T07:35:14;100855.23;;;17.49;54.11
74466;BME280;62916;50.044;15.938;2024-01-30T07:37:45;100855.17;;;17.50;54.10
74466;BME280;62916;50.044;15.938;2024-01-30T07:40:16;100857.70;;;17.50;54.02
74466;BME280;62916;50.044;15.938;2024-01-30T07:42:48;100853.31;;;17.51;54.12
74466;BME280;62916;50.044;15.938;2024-01-30T07:45:19;100852.77;;;17.53;54.07
74466;BME280;62916;50.044;15.938;2024-01-30T07:47:52;100852.35;;;17.58;54.11
74466;BME280;62916;50.044;15.938;2024-01-30T07:50:23;100851.92;;;17.62;53.97
74466;BME280;62916;50.044;15.938;2024-01-30T07:52:55;100856.23;;;17.67;53.94
74466;BME280;62916;50.044;15.938;2024-01-30T07:55:26;100850.67;;;17.72;53.94
74466;BME280;62916;50.044;15.938;2024-01-30T07:57:58;100847.27;;;17.78;54.06
74466;BME280;62916;50.044;15.938;2024-01-30T08:00:30;100849.50;;;17.82;54.05
74466;BME280;62916;50.044;15.938;2024-01-30T08:03:01;100847.27;;;17.83;54.01
74466;BME280;62916;50.044;15.938;2024-01-30T08:05:32;100852.21;;;17.86;53.95
74466;BME280;62916;50.044;15.938;2024-01-30T08:08:04;100858.45;;;17.90;53.81
74466;BME280;62916;50.044;15.938;2024-01-30T08:10:34;100860.81;;;17.92;53.66
74466;BME280;62916;50.044;15.938;2024-01-30T08:13:05;100858.88;;;17.95;53.61
74466;BME280;62916;50.044;15.938;2024-01-30T08:15:38;100860.39;;;17.97;53.52
74466;BME280;62916;50.044;15.938;2024-01-30T08:18:09;100858.52;;;17.99;53.44
74466;BME280;62916;50.044;15.938;2024-01-30T08:20:40;100857.62;;;18.01;53.32
74466;BME280;62916;50.044;15.938;2024-01-30T08:23:11;100858.64;;;18.03;53.37
74466;BME280;62916;50.044;15.938;2024-01-30T08:25:42;100859.63;;;18.05;53.21
74466;BME280;62916;50.044;15.938;2024-01-30T08:28:13;100861.45;;;18.06;53.11
74466;BME280;62916;50.044;15.938;2024-01-30T08:30:47;100860.68;;;18.08;53.15
74466;BME280;62916;50.044;15.938;2024-01-30T08:33:18;100856.64;;;18.08;53.01
74466;BME280;62916;50.044;15.938;2024-01-30T08:35:49;100856.43;;;18.08;53.11
74466;BME280;62916;50.044;15.938;2024-01-30T08:38:20;100856.60;;;18.08;52.82
74466;BME280;62916;50.044;15.938;2024-01-30T08:40:51;100857.11;;;18.09;52.91
74466;BME280;62916;50.044;15.938;2024-01-30T08:43:22;100857.40;;;18.09;52.83
74466;BME280;62916;50.044;15.938;2024-01-30T08:45:52;100859.66;;;18.11;52.75
74466;BME280;62916;50.044;15.938;2024-01-30T08:48:24;100859.33;;;18.13;52.85
74466;BME280;62916;50.044;15.938;2024-01-30T08:50:55;100856.63;;;18.17;52.86
74466;BME280;62916;50.044;15.938;2024-01-30T08:53:26;100861.52;;;18.20;52.72
74466;BME280;62916;50.044;15.938;2024-01-30T08:55:57;100857.43;;;18.23;52.66
74466;BME280;62916;50.044;15.938;2024-01-30T08:58:28;100865.48;;;18.25;52.78
74466;BME280;62916;50.044;15.938;2024-01-30T09:01:00;100867.89;;;18.27;52.72
74466;BME280;62916;50.044;15.938;2024-01-30T09:03:31;100869.79;;;18.30;52.66
74466;BME280;62916;50.044;15.938;2024-01-30T09:06:02;100865.64;;;18.34;52.74
74466;BME280;62916;50.044;15.938;2024-01-30T09:08:33;100870.48;;;18.37;52.74
74466;BME280;62916;50.044;15.938;2024-01-30T09:11:11;100870.23;;;18.40;52.76
74466;BME280;62916;50.044;15.938;2024-01-30T09:13:42;100868.96;;;18.42;52.67
74466;BME280;62916;50.044;15.938;2024-01-30T09:16:13;100866.21;;;18.45;52.66
74466;BME280;62916;50.044;15.938;2024-01-30T09:18:45;100864.30;;;18.48;52.68
74466;BME280;62916;50.044;15.938;2024-01-30T09:21:16;100866.85;;;18.51;52.64
74466;BME280;62916;50.044;15.938;2024-01-30T09:23:47;100862.04;;;18.53;52.53
74466;BME280;62916;50.044;15.938;2024-01-30T09:26:18;100860.25;;;18.55;52.49
74466;BME280;62916;50.044;15.938;2024-01-30T09:28:51;100859.40;;;18.57;52.53
74466;BME280;62916;50.044;15.938;2024-01-30T09:31:22;100862.59;;;18.59;52.49
74466;BME280;62916;50.044;15.938;2024-01-30T09:33:53;100861.77;;;18.60;52.51
74466;BME280;62916;50.044;15.938;2024-01-30T09:36:25;100860.48;;;18.63;52.41
74466;BME280;62916;50.044;15.938;2024-01-30T09:38:57;100861.80;;;18.65;52.33
74466;BME280;62916;50.044;15.938;2024-01-30T09:41:29;100862.33;;;18.67;52.34
74466;BME280;62916;50.044;15.938;2024-01-30T09:44:01;100864.55;;;18.69;52.25
74466;BME280;62916;50.044;15.938;2024-01-30T09:46:33;100863.97;;;18.72;52.17
74466;BME280;62916;50.044;15.938;2024-01-30T09:49:05;100861.54;;;18.73;52.11
74466;BME280;62916;50.044;15.938;2024-01-30T09:51:37;100859.86;;;18.73;49.97
74466;BME280;62916;50.044;15.938;2024-01-30T09:54:09;100858.17;;;18.52;45.77
74466;BME280;62916;50.044;15.938;2024-01-30T09:56:41;100858.05;;;18.32;45.99
74466;BME280;62916;50.044;15.938;2024-01-30T09:59:12;100860.30;;;18.23;46.82
74466;BME280;62916;50.044;15.938;2024-01-30T10:01:43;100860.85;;;18.22;46.88
74466;BME280;62916;50.044;15.938;2024-01-30T10:04:15;100858.85;;;18.15;46.56
74466;BME280;62916;50.044;15.938;2024-01-30T10:06:47;100856.61;;;18.05;46.63
74466;BME280;62916;50.044;15.938;2024-01-30T10:09:18;100858.14;;;17.97;46.50
74466;BME280;62916;50.044;15.938;2024-01-30T10:11:50;100856.42;;;17.91;46.57
74466;BME280;62916;50.044;15.938;2024-01-30T10:14:21;100852.33;;;17.86;46.73
74466;BME280;62916;50.044;15.938;2024-01-30T10:16:53;100852.84;;;17.86;47.00
74466;BME280;62916;50.044;15.938;2024-01-30T10:19:24;100853.04;;;17.89;46.98
74466;BME280;62916;50.044;15.938;2024-01-30T10:21:55;100854.86;;;17.92;47.34
74466;BME280;62916;50.044;15.938;2024-01-30T10:24:27;100851.41;;;17.98;47.36
74466;BME280;62916;50.044;15.938;2024-01-30T10:26:58;100846.80;;;18.03;47.53
74466;BME280;62916;50.044;15.938;2024-01-30T10:29:30;100842.89;;;18.09;47.59
74466;BME280;62916;50.044;15.938;2024-01-30T10:32:02;100841.69;;;18.12;47.77
74466;BME280;62916;50.044;15.938;2024-01-30T10:34:33;100833.94;;;18.16;47.71
74466;BME280;62916;50.044;15.938;2024-01-30T10:37:09;100832.80;;;18.19;47.80
74466;BME280;62916;50.044;15.938;2024-01-30T10:39:43;100830.75;;;18.22;47.84
74466;BME280;62916;50.044;15.938;2024-01-30T10:42:17;100829.95;;;18.26;47.89
74466;BME280;62916;50.044;15.938;2024-01-30T10:44:56;100827.80;;;18.28;47.83
74466;BME280;62916;50.044;15.938;2024-01-30T10:47:29;100822.61;;;18.31;47.81
74466;BME280;62916;50.044;15.938;2024-01-30T10:50:00;100822.31;;;18.32;47.19
74466;BME280;62916;50.044;15.938;2024-01-30T10:52:33;100820.35;;;18.31;47.57
74466;BME280;62916;50.044;15.938;2024-01-30T10:55:05;100815.81;;;18.34;47.53
74466;BME280;62916;50.044;15.938;2024-01-30T10:57:37;100818.13;;;18.39;47.73
74466;BME280;62916;50.044;15.938;2024-01-30T11:00:11;100816.75;;;18.44;47.83
74466;BME280;62916;50.044;15.938;2024-01-30T11:02:46;100809.39;;;18.48;47.96
74466;BME280;62916;50.044;15.938;2024-01-30T11:05:24;100810.73;;;18.52;48.09
74466;BME280;62916;50.044;15.938;2024-01-30T11:08:12;100804.16;;;18.57;47.95
74466;BME280;62916;50.044;15.938;2024-01-30T11:10:49;100805.34;;;18.61;47.94
74466;BME280;62916;50.044;15.938;2024-01-30T11:13:21;100798.77;;;18.64;48.01
74466;BME280;62916;50.044;15.938;2024-01-30T11:15:52;100792.92;;;18.67;48.13
74466;BME280;62916;50.044;15.938;2024-01-30T11:18:28;100791.33;;;18.70;48.14
74466;BME280;62916;50.044;15.938;2024-01-30T11:21:01;100790.77;;;18.72;48.13
74466;BME280;62916;50.044;15.938;2024-01-30T11:23:33;100790.38;;;18.74;48.22
74466;BME280;62916;50.044;15.938;2024-01-30T11:26:05;100790.80;;;18.76;48.17
74466;BME280;62916;50.044;15.938;2024-01-30T11:28:39;100794.14;;;18.79;48.25
74466;BME280;62916;50.044;15.938;2024-01-30T11:31:10;100790.23;;;18.81;48.17
74466;BME280;62916;50.044;15.938;2024-01-30T11:33:55;100790.86;;;18.83;48.24
74466;BME280;62916;50.044;15.938;2024-01-30T11:36:28;100790.14;;;18.85;48.28
74466;BME280;62916;50.044;15.938;2024-01-30T11:39:03;100787.84;;;18.87;48.24
74466;BME280;62916;50.044;15.938;2024-01-30T11:41:34;100781.45;;;18.88;48.28
74466;BME280;62916;50.044;15.938;2024-01-30T11:44:08;100782.20;;;18.90;48.39
74466;BME280;62916;50.044;15.938;2024-01-30T11:46:39;100779.46;;;18.92;48.30
74466;BME280;62916;50.044;15.938;2024-01-30T11:49:11;100779.02;;;18.94;48.28
74466;BME280;62916;50.044;15.938;2024-01-30T11:51:42;100776.45;;;18.96;48.23
74466;BME280;62916;50.044;15.938;2024-01-30T11:54:13;100773.53;;;18.98;48.35
74466;BME280;62916;50.044;15.938;2024-01-30T11:56:45;100767.87;;;18.99;48.43
74466;BME280;62916;50.044;15.938;2024-01-30T11:59:16;100765.48;;;19.02;48.43
74466;BME280;62916;50.044;15.938;2024-01-30T12:01:47;100763.00;;;19.04;48.31
74466;BME280;62916;50.044;15.938;2024-01-30T12:04:19;100754.58;;;19.06;48.55
74466;BME280;62916;50.044;15.938;2024-01-30T12:06:53;100756.45;;;19.07;48.56
74466;BME280;62916;50.044;15.938;2024-01-30T12:09:24;100757.13;;;19.09;48.57
74466;BME280;62916;50.044;15.938;2024-01-30T12:11:57;100756.70;;;19.11;48.51
74466;BME280;62916;50.044;15.938;2024-01-30T12:14:28;100750.87;;;19.13;48.46
74466;BME280;62916;50.044;15.938;2024-01-30T12:16:59;100748.54;;;19.13;48.53
74466;BME280;62916;50.044;15.938;2024-01-30T12:19:30;100748.16;;;19.15;48.45
74466;BME280;62916;50.044;15.938;2024-01-30T12:22:01;100745.52;;;19.16;48.55
74466;BME280;62916;50.044;15.938;2024-01-30T12:24:32;100742.78;;;19.18;48.52
74466;BME280;62916;50.044;15.938;2024-01-30T12:27:03;100739.77;;;19.19;48.45
74466;BME280;62916;50.044;15.938;2024-01-30T12:29:35;100736.16;;;19.19;48.33
74466;BME280;62916;50.044;15.938;2024-01-30T12:32:09;100734.31;;;19.20;48.37
74466;BME280;62916;50.044;15.938;2024-01-30T12:34:45;100727.56;;;19.21;48.45
74466;BME280;62916;50.044;15.938;2024-01-30T12:37:29;100724.98;;;19.23;48.46
74466;BME280;62916;50.044;15.938;2024-01-30T12:40:01;100721.21;;;19.25;48.61
74466;BME280;62916;50.044;15.938;2024-01-30T12:42:32;100723.81;;;19.26;48.65
74466;BME280;62916;50.044;15.938;2024-01-30T12:45:04;100720.50;;;19.28;48.52
74466;BME280;62916;50.044;15.938;2024-01-30T12:47:36;100718.49;;;19.30;48.68
74466;BME280;62916;50.044;15.938;2024-01-30T12:50:07;100710.98;;;19.32;48.65
74466;BME280;62916;50.044;15.938;2024-01-30T12:52:39;100708.44;;;19.34;48.58
74466;BME280;62916;50.044;15.938;2024-01-30T12:55:10;100705.23;;;19.33;48.63
74466;BME280;62916;50.044;15.938;2024-01-30T12:57:42;100706.07;;;19.34;48.62
74466;BME280;62916;50.044;15.938;2024-01-30T13:00:13;100704.10;;;19.35;48.56
74466;BME280;62916;50.044;15.938;2024-01-30T13:02:45;100701.52;;;19.35;48.60